Time;durP1;ratioP1;P1;durP2;ratioP2;P2;SDS_P1;SDS_P2;PMS_P1;PMS_P2;Temp;Humidity;BMP_temperature;BMP_pressure;BME280_temperature;BME280_humidity;BME280_pressure;Samples;Min_cycle;Max_cycle;Signal;HPM_P1;HPM_P2
2021/12/25 00:02:47;;;;;;;20.67;18.05;;;22.50;76.90;;;;;;6195924;28;89123;-67
2021/12/25 00:05:52;;;;;;;20.83;17.98;;;22.40;76.80;;;;;;6195651;28;89134;-66
2021/12/25 00:08:54;;;;;;;19.95;16.80;;;22.50;76.90;;;;;;6199638;28;89158;-67
2021/12/25 00:11:56;;;;;;;21.27;16.70;;;22.40;76.80;;;;;;6190073;28;89168;-67
2021/12/25 00:14:59;;;;;;;18.65;16.65;;;22.40;76.70;;;;;;6195950;28;88935;-67
2021/12/25 00:18:01;;;;;;;23.08;18.30;;;22.40;76.90;;;;;;6204609;28;88583;-67
2021/12/25 00:21:04;;;;;;;20.83;17.92;;;22.40;76.90;;;;;;6206952;28;89151;-67
2021/12/25 00:24:06;;;;;;;20.50;17.60;;;22.40;76.90;;;;;;6208184;28;87936;-68
2021/12/25 00:27:22;;;;;;;22.10;17.63;;;22.40;76.90;;;;;;6194866;28;90510;-68
2021/12/25 00:30:34;;;;;;;20.05;17.70;;;22.40;76.90;;;;;;6206933;28;89065;-69
2021/12/25 00:33:53;;;;;;;21.05;17.63;;;22.40;76.90;;;;;;6195157;28;89222;-68
2021/12/25 00:36:55;;;;;;;19.95;17.15;;;22.40;76.90;;;;;;6205930;28;89026;-68
2021/12/25 00:39:57;;;;;;;21.30;17.70;;;22.40;76.90;;;;;;6207994;28;89175;-68
2021/12/25 00:42:59;;;;;;;20.60;17.13;;;22.40;76.90;;;;;;6207291;28;89098;-67
2021/12/25 00:46:03;;;;;;;20.83;17.10;;;22.30;76.90;;;;;;6184410;28;89434;-67
2021/12/25 00:49:05;;;;;;;19.10;17.08;;;22.40;77.00;;;;;;6200846;28;88296;-67
2021/12/25 00:52:08;;;;;;;20.92;17.63;;;22.30;76.90;;;;;;6207725;28;89140;-68
2021/12/25 00:55:11;;;;;;;20.08;17.85;;;22.30;76.90;;;;;;6207196;28;89562;-68
2021/12/25 00:58:13;;;;;;;19.80;17.52;;;22.30;77.00;;;;;;6192402;28;89984;-67
2021/12/25 01:01:16;;;;;;;19.63;16.85;;;22.30;77.00;;;;;;6208716;28;89107;-67
2021/12/25 01:04:18;;;;;;;20.48;16.65;;;22.30;76.90;;;;;;6190214;28;89290;-67
2021/12/25 01:07:20;;;;;;;19.23;16.80;;;22.30;76.90;;;;;;6184542;28;89110;-68
2021/12/25 01:10:23;;;;;;;19.27;17.17;;;22.30;77.00;;;;;;6207095;28;89023;-68
2021/12/25 01:13:28;;;;;;;19.42;17.08;;;22.30;77.00;;;;;;6208219;28;87990;-67
2021/12/25 01:17:00;;;;;;;18.67;16.67;;;22.30;77.10;;;;;;6183422;28;89223;-66
2021/12/25 01:20:26;;;;;;;19.50;17.35;;;22.30;77.10;;;;;;6184529;28;87431;-67
2021/12/25 01:23:55;;;;;;;19.85;17.73;;;22.30;77.10;;;;;;6202690;28;89538;-67
2021/12/25 01:27:19;;;;;;;18.08;16.17;;;22.30;77.10;;;;;;6202553;28;89110;-67
2021/12/25 01:30:27;;;;;;;18.17;16.27;;;22.20;77.10;;;;;;6205794;28;89274;-68
2021/12/25 01:34:12;;;;;;;19.10;17.10;;;22.20;77.10;;;;;;6205620;28;89137;-67
2021/12/25 01:37:19;;;;;;;18.92;16.77;;;22.20;77.10;;;;;;6206638;28;89038;-68
2021/12/25 01:40:43;;;;;;;19.25;16.25;;;22.20;77.10;;;;;;6206614;28;87941;-68
2021/12/25 01:50:29;;;;;;;18.42;16.52;;;22.10;77.10;;;;;;6178761;28;88008;-68
2021/12/25 01:53:31;;;;;;;18.17;15.32;;;22.20;77.20;;;;;;6190241;28;88474;-66
2021/12/25 01:56:33;;;;;;;18.25;16.35;;;22.20;77.20;;;;;;6185672;28;87912;-67
2021/12/25 01:59:35;;;;;;;18.45;16.55;;;22.10;77.20;;;;;;6192126;28;89401;-67
2021/12/25 02:02:37;;;;;;;18.52;15.63;;;22.20;77.30;;;;;;6196935;28;90103;-67
2021/12/25 02:05:41;;;;;;;17.60;15.75;;;22.10;77.20;;;;;;6202519;28;89032;-66
2021/12/25 02:08:45;;;;;;;17.67;15.75;;;22.10;77.20;;;;;;6205362;28;89690;-68
2021/12/25 02:11:47;;;;;;;18.60;16.60;;;22.10;77.20;;;;;;6206250;28;89168;-67
2021/12/25 02:14:50;;;;;;;17.38;15.30;;;22.10;77.20;;;;;;6192296;28;87971;-67
2021/12/25 02:18:06;;;;;;;17.55;15.38;;;22.10;77.20;;;;;;6193351;28;89038;-67
2021/12/25 02:21:16;;;;;;;16.40;14.70;;;22.10;77.20;;;;;;6204845;28;89280;-67
2021/12/25 02:24:18;;;;;;;17.25;15.30;;;22.10;77.20;;;;;;6206137;28;87412;-67
2021/12/25 02:27:20;;;;;;;16.83;15.10;;;22.10;77.20;;;;;;6204850;28;89267;-67
2021/12/25 02:30:22;;;;;;;16.45;14.65;;;22.10;77.20;;;;;;6201103;28;89034;-67
2021/12/25 02:33:26;;;;;;;16.05;14.43;;;22.10;77.20;;;;;;6203544;28;90152;-67
2021/12/25 02:36:30;;;;;;;16.17;14.50;;;22.10;77.20;;;;;;6193086;28;89121;-67
2021/12/25 02:39:32;;;;;;;16.17;14.48;;;22.00;77.10;;;;;;6205448;28;89130;-67
2021/12/25 02:42:35;;;;;;;16.25;14.50;;;22.10;77.20;;;;;;6194601;28;89305;-67
2021/12/25 02:45:37;;;;;;;16.40;14.70;;;22.00;77.20;;;;;;6204807;28;88168;-68
2021/12/25 02:48:42;;;;;;;16.10;14.43;;;22.00;77.20;;;;;;6203234;28;87747;-68
2021/12/25 02:51:47;;;;;;;15.73;14.13;;;22.00;77.20;;;;;;6205326;28;88004;-69
2021/12/25 02:54:50;;;;;;;16.20;14.50;;;22.00;77.20;;;;;;6181860;28;88438;-68
2021/12/25 02:57:52;;;;;;;15.20;13.60;;;22.00;77.30;;;;;;6204067;28;89423;-68
2021/12/25 03:00:57;;;;;;;14.80;13.30;;;22.00;77.30;;;;;;6186228;28;89533;-67
2021/12/25 03:03:59;;;;;;;15.75;13.82;;;22.00;77.40;;;;;;6205329;28;90005;-68
2021/12/25 03:07:03;;;;;;;15.73;13.32;;;22.00;77.40;;;;;;6196608;28;89263;-68
2021/12/25 03:10:07;;;;;;;14.90;13.20;;;22.00;77.50;;;;;;6209492;28;89003;-68
2021/12/25 03:13:30;;;;;;;15.40;13.80;;;22.00;77.40;;;;;;6205414;28;89022;-68
2021/12/25 03:16:32;;;;;;;15.43;13.70;;;21.90;77.40;;;;;;6188643;28;88911;-68
2021/12/25 03:19:34;;;;;;;15.07;13.48;;;21.90;77.40;;;;;;6195201;28;89346;-69
2021/12/25 03:22:39;;;;;;;14.95;13.35;;;21.90;77.60;;;;;;6207306;28;89092;-67
2021/12/25 03:25:42;;;;;;;14.63;12.63;;;21.90;77.60;;;;;;6208600;28;86842;-68
2021/12/25 03:28:45;;;;;;;14.40;12.88;;;21.90;77.60;;;;;;6209659;28;89055;-66
2021/12/25 03:31:47;;;;;;;14.15;12.73;;;21.90;77.60;;;;;;6208991;28;88978;-69
2021/12/25 03:34:49;;;;;;;13.98;12.35;;;21.90;77.60;;;;;;6202705;28;89054;-68
2021/12/25 03:37:53;;;;;;;14.00;12.60;;;21.90;77.60;;;;;;6204215;28;89119;-68
2021/12/25 03:40:55;;;;;;;14.50;12.60;;;21.90;77.50;;;;;;6209219;28;87965;-69
2021/12/25 03:43:57;;;;;;;13.98;12.07;;;21.90;77.50;;;;;;6208135;28;89110;-68
2021/12/25 03:47:10;;;;;;;13.60;12.15;;;21.90;77.50;;;;;;6208554;28;89099;-69
2021/12/25 03:57:36;;;;;;;13.15;11.85;;;21.90;77.40;;;;;;6209108;28;87016;-68
2021/12/25 04:00:27;;;;;;;12.52;11.32;;;21.90;77.40;;;;;;6203101;28;87324;-67
2021/12/25 04:03:42;;;;;;;13.00;11.60;;;21.90;77.40;;;;;;6220395;28;89694;-67
2021/12/25 04:06:52;;;;;;;11.93;10.75;;;21.90;77.40;;;;;;6196378;28;90162;-68
2021/12/25 04:10:00;;;;;;;12.60;11.30;;;21.90;77.40;;;;;;6207069;28;89143;-68
2021/12/25 04:13:02;;;;;;;11.82;10.63;;;21.90;77.40;;;;;;6195294;28;89228;-68
2021/12/25 04:16:05;;;;;;;13.25;10.90;;;21.80;77.40;;;;;;6195143;28;89043;-67
2021/12/25 04:19:07;;;;;;;11.30;10.18;;;21.80;77.40;;;;;;6193005;28;89344;-67
2021/12/25 04:22:15;;;;;;;11.93;10.77;;;21.80;77.40;;;;;;6209047;28;89468;-67
2021/12/25 04:25:23;;;;;;;11.75;10.55;;;21.80;77.40;;;;;;6207471;28;88050;-67
2021/12/25 04:28:36;;;;;;;11.05;9.95;;;21.80;77.40;;;;;;6199644;28;88322;-67
2021/12/25 04:32:04;;;;;;;11.40;10.23;;;21.80;77.40;;;;;;6197249;28;89409;-68
2021/12/25 05:02:07;;;;;;;9.68;8.02;;;21.80;76.70;;;;;;6133731;28;86516;-67
2021/12/25 05:05:14;;;;;;;9.63;8.10;;;21.80;76.70;;;;;;6123874;28;89183;-67
2021/12/25 05:08:16;;;;;;;9.27;8.32;;;21.90;76.70;;;;;;6196284;28;89487;-67
2021/12/25 05:11:18;;;;;;;10.40;7.90;;;21.80;76.60;;;;;;6200072;28;88946;-67
2021/12/25 05:14:21;;;;;;;8.68;7.82;;;21.90;76.60;;;;;;6203597;28;88993;-67
2021/12/25 05:17:23;;;;;;;8.60;7.57;;;21.80;76.50;;;;;;6206823;28;89132;-66
2021/12/25 05:20:26;;;;;;;8.77;7.88;;;21.90;76.50;;;;;;6205012;28;89095;-66
2021/12/25 05:23:28;;;;;;;8.15;7.35;;;21.90;76.40;;;;;;6206328;28;89065;-67
2021/12/25 05:26:30;;;;;;;9.38;7.70;;;21.80;76.40;;;;;;6207094;28;89273;-67
2021/12/25 05:29:34;;;;;;;8.90;8.00;;;21.80;76.60;;;;;;6207393;28;87949;-66
2021/12/25 05:32:36;;;;;;;8.73;7.75;;;21.90;76.60;;;;;;6203676;28;87270;-67
2021/12/25 05:35:38;;;;;;;8.45;7.45;;;21.90;76.70;;;;;;6206075;28;88992;-66
2021/12/25 05:38:40;;;;;;;8.48;7.50;;;21.80;76.70;;;;;;6208878;28;89158;-66
2021/12/25 05:41:42;;;;;;;7.90;7.10;;;21.80;76.70;;;;;;6206595;28;90073;-66
2021/12/25 05:44:46;;;;;;;8.65;7.07;;;21.80;76.70;;;;;;6205629;28;89085;-67
2021/12/25 05:47:48;;;;;;;8.65;7.05;;;21.80;76.70;;;;;;6207148;28;89156;-67
2021/12/25 05:50:50;;;;;;;7.32;6.60;;;21.80;76.70;;;;;;6208435;28;89098;-66
2021/12/25 05:53:52;;;;;;;9.18;6.20;;;21.80;76.60;;;;;;6208849;28;89125;-67
2021/12/25 05:56:54;;;;;;;7.82;6.90;;;21.80;76.70;;;;;;6210492;28;89198;-67
2021/12/25 05:59:57;;;;;;;7.53;6.78;;;21.80;76.80;;;;;;6204263;28;89099;-66
2021/12/25 06:03:00;;;;;;;8.32;6.55;;;21.80;76.90;;;;;;6209619;28;88348;-66
2021/12/25 06:06:02;;;;;;;8.35;6.57;;;21.80;76.80;;;;;;6207867;28;89442;-66
2021/12/25 06:09:07;;;;;;;7.70;6.60;;;21.70;76.70;;;;;;6219969;28;89084;-67
2021/12/25 06:12:11;;;;;;;7.20;6.32;;;21.80;76.70;;;;;;6193034;28;90085;-67
2021/12/25 06:15:18;;;;;;;6.85;6.20;;;21.70;76.70;;;;;;6220778;28;89108;-68
2021/12/25 06:18:20;;;;;;;6.70;6.00;;;21.80;76.70;;;;;;6220165;28;89034;-68
2021/12/25 06:21:23;;;;;;;7.03;6.32;;;21.80;76.90;;;;;;6206371;28;89352;-67
2021/12/25 06:24:26;;;;;;;7.55;6.00;;;21.80;76.80;;;;;;6219318;28;89162;-68
2021/12/25 06:27:28;;;;;;;7.13;5.97;;;21.80;76.70;;;;;;6207280;28;89066;-67
2021/12/25 06:30:32;;;;;;;8.35;6.38;;;21.80;76.70;;;;;;6208144;28;89117;-68
2021/12/25 06:33:34;;;;;;;8.13;6.00;;;21.80;76.70;;;;;;6207463;28;87273;-67
2021/12/25 06:36:36;;;;;;;6.32;5.72;;;21.80;76.60;;;;;;6220238;28;89419;-67
2021/12/25 06:39:39;;;;;;;6.47;5.80;;;21.80;76.60;;;;;;6210253;28;89128;-68
2021/12/25 06:42:41;;;;;;;6.20;5.60;;;21.80;76.70;;;;;;6223105;28;90051;-67
2021/12/25 06:45:44;;;;;;;6.40;5.28;;;21.80;76.60;;;;;;6210176;28;89083;-67
2021/12/25 06:48:46;;;;;;;7.45;5.20;;;21.80;76.50;;;;;;6211593;28;89013;-69
2021/12/25 06:51:49;;;;;;;7.75;5.05;;;21.80;76.30;;;;;;6209975;28;89063;-69
2021/12/25 06:54:51;;;;;;;13.13;5.07;;;21.80;76.20;;;;;;6198260;28;89110;-68
2021/12/25 06:57:55;;;;;;;8.32;5.40;;;21.80;76.10;;;;;;6211249;28;88965;-68
2021/12/25 07:00:58;;;;;;;7.38;5.03;;;21.90;76.10;;;;;;6196416;28;89079;-68
2021/12/25 07:04:00;;;;;;;6.65;4.85;;;21.90;76.00;;;;;;6203104;28;88339;-67
2021/12/25 07:07:03;;;;;;;7.70;4.88;;;21.90;76.00;;;;;;6206417;28;89183;-67
2021/12/25 07:10:06;;;;;;;5.55;4.63;;;21.90;76.10;;;;;;6204098;28;89012;-67
2021/12/25 07:13:15;;;;;;;7.43;4.80;;;21.90;76.10;;;;;;6199006;28;90062;-67
2021/12/25 07:16:19;;;;;;;5.55;4.82;;;21.90;76.10;;;;;;6197154;28;89357;-67
2021/12/25 07:19:21;;;;;;;5.75;4.32;;;21.90;76.10;;;;;;6202715;28;89108;-67
2021/12/25 07:22:23;;;;;;;5.13;4.57;;;21.90;76.20;;;;;;6196282;28;88410;-66
2021/12/25 07:25:25;;;;;;;6.82;4.47;;;21.90;76.10;;;;;;6209768;28;89059;-66
2021/12/25 07:28:28;;;;;;;6.63;4.25;;;21.90;76.20;;;;;;6210981;28;88017;-66
2021/12/25 07:31:32;;;;;;;4.95;4.30;;;22.00;76.20;;;;;;6208781;28;89594;-68
2021/12/25 07:34:34;;;;;;;5.50;4.05;;;21.90;76.20;;;;;;6212121;28;87214;-67
2021/12/25 07:37:36;;;;;;;5.60;4.38;;;22.00;76.50;;;;;;6199238;28;87975;-67
2021/12/25 07:40:38;;;;;;;6.97;4.55;;;22.00;76.50;;;;;;6206799;28;89215;-66
2021/12/25 07:43:41;;;;;;;4.47;4.07;;;22.00;76.50;;;;;;6195557;28;88950;-66
2021/12/25 07:46:45;;;;;;;4.75;4.20;;;22.00;76.80;;;;;;6210238;28;89052;-68
2021/12/25 07:49:47;;;;;;;5.30;4.80;;;21.90;76.90;;;;;;6210142;28;89126;-64
2021/12/25 07:52:49;;;;;;;8.50;4.50;;;22.00;78.10;;;;;;6213245;28;89123;-67
2021/12/25 07:55:51;;;;;;;9.02;4.05;;;22.00;78.80;;;;;;6206935;28;89171;-67
2021/12/25 07:58:54;;;;;;;6.90;4.50;;;22.20;79.40;;;;;;6196425;28;89389;-67
2021/12/25 08:01:57;;;;;;;6.22;4.40;;;22.20;78.30;;;;;;6209048;28;89111;-67
2021/12/25 08:04:59;;;;;;;25.98;11.82;;;22.30;78.30;;;;;;6210496;28;88267;-66
2021/12/25 08:08:03;;;;;;;38.83;15.40;;;22.30;79.10;;;;;;6199507;28;89038;-65
2021/12/25 08:11:05;;;;;;;17.25;8.82;;;22.40;80.60;;;;;;6210590;28;87965;-66
2021/12/25 08:14:07;;;;;;;14.70;7.55;;;22.50;80.40;;;;;;6208431;28;90514;-66
2021/12/25 08:17:10;;;;;;;12.52;7.38;;;22.60;80.70;;;;;;6218801;28;88972;-66
2021/12/25 08:20:13;;;;;;;13.00;7.38;;;22.60;79.30;;;;;;6210369;28;88858;-66
2021/12/25 08:23:16;;;;;;;11.07;7.07;;;22.70;79.30;;;;;;6199295;28;88307;-66
2021/12/25 08:26:18;;;;;;;11.93;7.30;;;22.70;78.90;;;;;;6205832;28;89458;-66
2021/12/25 08:29:20;;;;;;;12.98;7.07;;;22.70;78.60;;;;;;6215715;28;89474;-65
2021/12/25 08:32:23;;;;;;;12.18;6.63;;;22.80;78.60;;;;;;6219552;28;89378;-66
2021/12/25 08:35:27;;;;;;;11.80;6.70;;;22.90;78.50;;;;;;6200756;28;88375;-66
2021/12/25 08:38:29;;;;;;;10.02;6.40;;;22.90;78.50;;;;;;6209635;28;89394;-66
2021/12/25 08:41:31;;;;;;;10.27;6.78;;;22.90;78.40;;;;;;6207165;28;88006;-66
2021/12/25 08:44:39;;;;;;;9.25;6.03;;;22.90;78.30;;;;;;6209486;28;89102;-66
2021/12/25 08:47:42;;;;;;;9.38;6.05;;;23.00;78.20;;;;;;6209787;28;89234;-66
2021/12/25 08:50:48;;;;;;;10.85;6.18;;;23.00;77.90;;;;;;6208214;28;88011;-66
2021/12/25 08:53:50;;;;;;;9.27;6.03;;;23.00;77.90;;;;;;6205484;28;91971;-66
2021/12/25 08:56:52;;;;;;;9.38;5.90;;;23.00;77.90;;;;;;6211514;28;89516;-67
2021/12/25 08:59:56;;;;;;;9.20;5.63;;;23.10;77.70;;;;;;6203534;28;89114;-66
2021/12/25 09:02:59;;;;;;;10.13;5.93;;;23.10;77.80;;;;;;6183281;28;88781;-65
2021/12/25 09:06:03;;;;;;;10.18;6.10;;;23.10;77.40;;;;;;6211806;28;87250;-66
2021/12/25 09:09:06;;;;;;;7.85;5.65;;;23.10;77.10;;;;;;6196220;28;87999;-65
2021/12/25 09:12:11;;;;;;;8.57;5.40;;;23.10;76.90;;;;;;6208747;28;89234;-65
2021/12/25 09:15:14;;;;;;;10.32;5.30;;;23.10;76.80;;;;;;6200576;28;90072;-65
2021/12/25 09:18:17;;;;;;;7.53;5.30;;;23.20;76.70;;;;;;6193114;28;89164;-66
2021/12/25 09:21:19;;;;;;;8.85;5.32;;;23.20;76.60;;;;;;6212842;28;89276;-66
2021/12/25 09:24:21;;;;;;;8.30;5.20;;;23.20;76.50;;;;;;6220983;28;87952;-66
2021/12/25 09:27:23;;;;;;;7.90;5.10;;;23.20;76.40;;;;;;6209805;28;89154;-66
2021/12/25 09:30:26;;;;;;;7.95;5.22;;;23.20;76.40;;;;;;6197683;28;89124;-66
2021/12/25 09:33:30;;;;;;;6.70;4.97;;;23.30;76.30;;;;;;6206970;28;89399;-67
2021/12/25 09:36:32;;;;;;;7.43;5.10;;;23.20;76.20;;;;;;6201392;28;88301;-65
2021/12/25 09:39:35;;;;;;;8.07;5.18;;;23.30;76.20;;;;;;6207379;28;89008;-67
2021/12/25 09:42:40;;;;;;;7.22;4.80;;;23.30;76.10;;;;;;6216814;28;89116;-65
2021/12/25 09:45:42;;;;;;;8.68;5.35;;;23.30;76.10;;;;;;6206671;28;90023;-66
2021/12/25 09:48:47;;;;;;;6.28;4.68;;;23.30;76.10;;;;;;6219161;28;88313;-66
2021/12/25 09:51:49;;;;;;;7.82;4.85;;;23.40;76.10;;;;;;6205932;28;89253;-66
2021/12/25 09:54:51;;;;;;;305.92;150.35;;;23.40;76.00;;;;;;6192753;28;87974;-66
2021/12/25 09:57:53;;;;;;;120.45;64.10;;;23.40;76.20;;;;;;6203054;28;88968;-66
2021/12/25 10:00:57;;;;;;;90.35;51.28;;;23.40;76.00;;;;;;6187414;28;88051;-67
2021/12/25 10:04:01;;;;;;;69.97;39.55;;;23.40;75.90;;;;;;6189362;28;88270;-65
2021/12/25 10:07:19;;;;;;;63.85;36.70;;;23.40;75.90;;;;;;6205011;28;87209;-67
2021/12/25 10:10:21;;;;;;;63.13;34.40;;;23.40;75.90;;;;;;6187814;28;89025;-66
2021/12/25 10:13:26;;;;;;;56.03;32.88;;;23.40;75.90;;;;;;6194794;28;89081;-65
2021/12/25 10:16:31;;;;;;;54.08;30.80;;;23.40;75.90;;;;;;6191656;28;90089;-66
2021/12/25 10:19:34;;;;;;;45.42;25.73;;;23.40;75.80;;;;;;6193986;28;89083;-66
2021/12/25 10:22:55;;;;;;;42.60;25.15;;;23.40;75.70;;;;;;6192890;28;89135;-66
2021/12/25 10:25:59;;;;;;;47.55;26.42;;;23.40;75.30;;;;;;6183343;28;87998;-64
2021/12/25 10:29:14;;;;;;;46.03;25.75;;;23.40;75.90;;;;;;6196357;28;89291;-67
2021/12/25 10:32:21;;;;;;;48.47;26.58;;;23.30;75.90;;;;;;6204611;28;87932;-66
2021/12/25 10:35:27;;;;;;;41.92;25.70;;;23.40;76.20;;;;;;6200620;28;89187;-66
2021/12/25 10:38:30;;;;;;;42.75;24.70;;;23.40;76.60;;;;;;6206122;28;88453;-66
2021/12/25 10:41:35;;;;;;;48.15;25.67;;;23.40;76.90;;;;;;6186116;28;88319;-67
2021/12/25 10:44:39;;;;;;;38.20;24.00;;;23.40;77.30;;;;;;6187331;28;89094;-67
2021/12/25 10:47:41;;;;;;;39.75;24.48;;;23.40;77.60;;;;;;6198988;28;90114;-66
2021/12/25 10:50:45;;;;;;;40.88;24.30;;;23.40;77.70;;;;;;6197960;28;89111;-65
2021/12/25 10:53:52;;;;;;;38.50;23.90;;;23.40;77.70;;;;;;6205860;28;89196;-66
2021/12/25 10:56:54;;;;;;;42.45;24.35;;;23.40;77.70;;;;;;6194307;28;87976;-66
2021/12/25 10:59:56;;;;;;;37.85;22.92;;;23.40;77.80;;;;;;6200476;28;89102;-67
2021/12/25 11:03:00;;;;;;;42.25;23.73;;;23.40;78.00;;;;;;6192703;28;89115;-66
2021/12/25 11:06:06;;;;;;;39.10;23.08;;;23.50;77.90;;;;;;6193504;28;89232;-67
2021/12/25 11:09:09;;;;;;;35.80;22.67;;;23.40;77.40;;;;;;6215542;28;87254;-66
2021/12/25 11:12:19;;;;;;;36.05;21.90;;;23.40;77.10;;;;;;6206663;28;89366;-67
2021/12/25 11:15:24;;;;;;;36.47;21.70;;;23.40;76.90;;;;;;6204905;28;89092;-67
2021/12/25 11:18:26;;;;;;;35.17;21.95;;;23.50;76.90;;;;;;6187164;28;90190;-67
2021/12/25 11:21:31;;;;;;;35.60;21.63;;;23.40;76.90;;;;;;6204049;28;89098;-67
2021/12/25 11:24:38;;;;;;;35.38;22.15;;;23.40;76.80;;;;;;6197078;28;89240;-67
2021/12/25 11:27:40;;;;;;;36.60;21.50;;;23.40;77.00;;;;;;6195913;28;89202;-66
2021/12/25 11:30:44;;;;;;;38.58;21.38;;;23.40;77.10;;;;;;6209508;28;89098;-66
2021/12/25 11:33:46;;;;;;;40.42;21.73;;;23.40;77.10;;;;;;6206293;28;89052;-66
2021/12/25 11:36:51;;;;;;;36.95;21.10;;;23.40;77.20;;;;;;6208968;28;89475;-67
2021/12/25 11:39:54;;;;;;;34.30;20.88;;;23.40;77.20;;;;;;6223219;28;88817;-66
2021/12/25 11:43:00;;;;;;;33.42;20.35;;;23.40;77.10;;;;;;6208875;28;89143;-66
2021/12/25 11:46:06;;;;;;;31.90;19.95;;;23.40;77.00;;;;;;6204044;28;89030;-66
2021/12/25 11:49:10;;;;;;;29.42;19.88;;;23.30;77.00;;;;;;6197463;28;90112;-66
2021/12/25 11:52:19;;;;;;;30.30;20.63;;;23.30;76.90;;;;;;6202190;28;89104;-67
2021/12/25 11:55:45;;;;;;;32.53;19.60;;;23.40;77.00;;;;;;6205032;28;89072;-66
2021/12/25 11:58:51;;;;;;;29.85;19.38;;;23.30;76.90;;;;;;6196583;28;88787;-66
2021/12/25 12:01:58;;;;;;;29.05;19.33;;;23.30;76.70;;;;;;6199451;28;89171;-67
2021/12/25 12:05:19;;;;;;;31.50;19.67;;;23.40;76.70;;;;;;6208252;28;89292;-67
2021/12/25 12:08:23;;;;;;;30.63;19.48;;;23.30;82.60;;;;;;6198830;28;88081;-66
2021/12/25 12:11:27;;;;;;;30.30;19.13;;;23.40;82.80;;;;;;6208656;28;88339;-66
2021/12/25 12:14:29;;;;;;;29.15;18.45;;;23.50;81.20;;;;;;6208147;28;89336;-66
2021/12/25 12:17:32;;;;;;;27.80;18.30;;;23.50;80.20;;;;;;6210795;28;87919;-67
2021/12/25 12:20:41;;;;;;;29.10;18.65;;;23.50;79.30;;;;;;6209884;28;90095;-67
2021/12/25 12:23:54;;;;;;;28.70;18.33;;;23.50;78.80;;;;;;6214877;28;89244;-67
2021/12/25 12:26:56;;;;;;;27.17;17.75;;;23.60;77.80;;;;;;6190546;28;89014;-67
2021/12/25 12:29:59;;;;;;;25.02;17.48;;;23.60;77.40;;;;;;6202767;28;89102;-67
2021/12/25 12:33:02;;;;;;;26.77;18.25;;;23.60;77.20;;;;;;6212177;28;89058;-66
2021/12/25 12:36:21;;;;;;;23.98;17.25;;;23.60;77.10;;;;;;6198561;28;89176;-67
2021/12/25 12:39:24;;;;;;;25.42;17.90;;;23.60;77.00;;;;;;6209143;28;89041;-67
2021/12/25 12:42:50;;;;;;;22.88;17.40;;;23.50;76.90;;;;;;6207290;28;88304;-67
2021/12/25 12:45:53;;;;;;;23.60;17.40;;;23.60;76.90;;;;;;6199126;28;89122;-68
2021/12/25 12:49:04;;;;;;;23.70;16.35;;;23.60;76.80;;;;;;6213452;28;89112;-67
2021/12/25 12:52:25;;;;;;;24.83;17.13;;;23.50;76.90;;;;;;6208743;28;89066;-67
2021/12/25 12:55:31;;;;;;;24.10;16.92;;;23.60;76.70;;;;;;6210265;28;89119;-67
2021/12/25 12:58:33;;;;;;;25.02;16.83;;;23.50;76.70;;;;;;6211487;28;89090;-68
2021/12/25 13:01:36;;;;;;;21.95;16.00;;;23.50;76.60;;;;;;6215416;28;88695;-67
2021/12/25 13:04:46;;;;;;;21.92;16.13;;;23.50;76.60;;;;;;6210794;28;89177;-67
2021/12/25 13:07:50;;;;;;;23.75;16.15;;;23.50;76.60;;;;;;6210580;28;88509;-67
2021/12/25 13:11:06;;;;;;;23.10;16.45;;;23.50;76.60;;;;;;6209921;28;89190;-67
2021/12/25 13:14:09;;;;;;;22.48;15.18;;;23.50;76.50;;;;;;6194241;28;88598;-67
2021/12/25 13:17:14;;;;;;;19.25;14.73;;;23.50;76.60;;;;;;6205121;28;89074;-67
2021/12/25 13:20:16;;;;;;;21.63;14.93;;;23.50;76.60;;;;;;6206937;28;89108;-68
2021/12/25 13:23:20;;;;;;;19.17;13.73;;;23.50;76.70;;;;;;6207754;28;89994;-67
2021/12/25 13:26:30;;;;;;;19.17;14.85;;;23.50;76.10;;;;;;6205718;28;88962;-69
2021/12/25 13:29:33;;;;;;;22.50;14.00;;;23.50;75.80;;;;;;6195863;28;89133;-67
2021/12/25 13:32:35;;;;;;;20.00;14.73;;;23.50;75.80;;;;;;6195765;28;89426;-67
2021/12/25 13:35:37;;;;;;;22.23;14.18;;;23.50;75.90;;;;;;6185507;28;89119;-67
2021/12/25 13:38:52;;;;;;;18.05;13.77;;;23.50;76.00;;;;;;6191384;28;89055;-66
2021/12/25 13:41:57;;;;;;;18.10;13.38;;;23.50;76.00;;;;;;6200165;28;89060;-67
2021/12/25 13:45:00;;;;;;;17.52;14.00;;;23.50;76.10;;;;;;6188752;28;88452;-66
2021/12/25 13:48:03;;;;;;;18.10;14.15;;;23.50;76.10;;;;;;6193098;28;89476;-65
2021/12/25 13:51:05;;;;;;;16.60;13.40;;;23.50;75.90;;;;;;6211044;28;89293;-66
2021/12/25 13:54:07;;;;;;;20.30;13.57;;;23.50;75.90;;;;;;6186785;28;89949;-66
2021/12/25 13:57:11;;;;;;;19.02;13.10;;;23.50;76.10;;;;;;6208239;28;89156;-65
2021/12/25 14:00:16;;;;;;;17.52;12.82;;;23.50;76.20;;;;;;6205403;28;88118;-66
2021/12/25 14:03:21;;;;;;;17.27;13.35;;;23.50;76.20;;;;;;6207143;28;89029;-67
2021/12/25 14:06:23;;;;;;;16.88;12.68;;;23.50;76.30;;;;;;6205147;28;89468;-67
2021/12/25 14:09:26;;;;;;;15.27;12.68;;;23.50;76.40;;;;;;6206677;28;89042;-66
2021/12/25 14:12:30;;;;;;;18.55;13.20;;;23.50;76.50;;;;;;6203489;28;88755;-67
2021/12/25 14:15:34;;;;;;;15.43;12.40;;;23.50;76.60;;;;;;6218756;28;88651;-66
2021/12/25 14:18:38;;;;;;;15.57;12.82;;;23.50;76.70;;;;;;6195192;28;89371;-67
2021/12/25 14:21:41;;;;;;;15.65;12.77;;;23.50;76.80;;;;;;6204727;28;89437;-66
2021/12/25 14:24:46;;;;;;;19.08;12.80;;;23.50;77.10;;;;;;6204797;28;88954;-66
2021/12/25 14:28:06;;;;;;;16.50;11.82;;;23.60;77.00;;;;;;6206042;28;89110;-66
2021/12/25 14:31:10;;;;;;;16.00;12.18;;;23.50;76.90;;;;;;6220305;28;89367;-67
2021/12/25 14:34:12;;;;;;;15.43;11.82;;;23.50;76.80;;;;;;6209346;28;89074;-66
2021/12/25 14:37:16;;;;;;;17.23;12.13;;;23.60;76.90;;;;;;6196799;28;89168;-66
2021/12/25 14:40:20;;;;;;;15.18;12.27;;;23.50;76.80;;;;;;6206777;28;88977;-67
2021/12/25 14:43:32;;;;;;;17.50;11.75;;;23.60;76.80;;;;;;6204157;28;89227;-67
2021/12/25 14:46:34;;;;;;;13.45;11.38;;;23.50;76.70;;;;;;6191654;28;88358;-67
2021/12/25 14:49:38;;;;;;;14.27;11.50;;;23.60;76.80;;;;;;6209285;28;89096;-68
2021/12/25 14:52:40;;;;;;;15.30;11.23;;;23.50;76.70;;;;;;6202387;28;88363;-67
2021/12/25 14:55:46;;;;;;;14.07;11.05;;;23.60;76.80;;;;;;6202277;28;90051;-67
2021/12/25 14:58:53;;;;;;;14.90;11.60;;;23.50;77.60;;;;;;6200804;28;89134;-67
2021/12/25 15:02:00;;;;;;;13.30;10.88;;;23.50;76.90;;;;;;6197026;28;89150;-67
2021/12/25 15:05:02;;;;;;;13.00;11.38;;;23.50;77.00;;;;;;6204709;28;89011;-67
2021/12/25 15:08:17;;;;;;;14.57;11.15;;;23.50;76.90;;;;;;6204787;28;89483;-67
2021/12/25 15:11:20;;;;;;;12.77;10.93;;;23.50;76.80;;;;;;6205656;28;89546;-66
2021/12/25 15:14:28;;;;;;;14.02;10.25;;;23.50;76.80;;;;;;6190796;28;88732;-66
2021/12/25 15:17:32;;;;;;;13.13;10.38;;;23.50;76.70;;;;;;6209288;28;88417;-66
2021/12/25 15:20:34;;;;;;;14.20;10.57;;;23.60;76.70;;;;;;6194297;28;89638;-67
2021/12/25 15:23:36;;;;;;;11.98;10.63;;;23.50;76.70;;;;;;6209357;28;89049;-66
2021/12/25 15:26:43;;;;;;;12.43;9.80;;;23.60;76.60;;;;;;6200445;28;90268;-67
2021/12/25 15:29:47;;;;;;;12.77;10.05;;;23.60;76.60;;;;;;6205776;28;89337;-67
2021/12/25 15:32:51;;;;;;;13.35;10.50;;;23.60;76.60;;;;;;6192932;28;89123;-67
2021/12/25 15:35:54;;;;;;;12.68;9.60;;;23.60;76.60;;;;;;6213453;28;89421;-66
2021/12/25 15:38:56;;;;;;;11.73;9.68;;;23.60;76.50;;;;;;6205042;28;89184;-67
2021/12/25 15:42:02;;;;;;;12.65;9.93;;;23.50;76.70;;;;;;6221330;28;89056;-67
2021/12/25 15:45:07;;;;;;;11.60;9.60;;;23.50;76.70;;;;;;6207209;28;88809;-67
2021/12/25 15:48:09;;;;;;;11.10;9.75;;;23.50;76.80;;;;;;6208123;28;88286;-66
2021/12/25 15:51:12;;;;;;;10.55;9.45;;;23.60;76.90;;;;;;6205422;28;88023;-67
2021/12/25 15:54:14;;;;;;;12.45;9.82;;;23.60;76.80;;;;;;6206980;28;89211;-67
2021/12/25 15:57:16;;;;;;;10.13;8.88;;;23.60;76.80;;;;;;6204556;28;90050;-66
2021/12/25 16:00:20;;;;;;;10.25;9.13;;;23.60;76.70;;;;;;6204049;28;88174;-66
2021/12/25 16:03:22;;;;;;;9.43;8.43;;;23.60;76.60;;;;;;6202021;28;89034;-66
2021/12/25 16:06:24;;;;;;;11.73;8.80;;;23.60;76.60;;;;;;6219773;28;89115;-66
2021/12/25 16:09:27;;;;;;;10.43;9.00;;;23.60;76.40;;;;;;6192111;28;89163;-66
2021/12/25 16:12:30;;;;;;;11.30;8.95;;;23.60;76.40;;;;;;6208256;28;88993;-67
2021/12/25 16:15:33;;;;;;;9.32;8.27;;;23.60;76.40;;;;;;6205814;28;88057;-66
2021/12/25 16:18:36;;;;;;;9.50;8.50;;;23.60;76.40;;;;;;6190626;28;88685;-67
2021/12/25 16:21:38;;;;;;;10.48;8.48;;;23.60;76.40;;;;;;6201853;28;87861;-66
2021/12/25 16:24:41;;;;;;;9.23;8.25;;;23.60;76.40;;;;;;6207128;28;89075;-66
2021/12/25 16:27:44;;;;;;;9.48;8.07;;;23.60;76.30;;;;;;6198715;28;90022;-66